CheckWX is a tool to help pilots better visualize weather data.  It is not intended as a substitute for an official pre-flight weather briefing.

12:26:17 UTC

RJFR TAF
Kitakyūshū Airport
Kitakyūshū, Japan
TAF RJFR 221111Z 2212/2318 04005KT 9999 FEW025 BKN040 BECMG 2300/2303 30013KT BECMG 2306/2309 24010KT BECMG 2312/2315 30017KT

Mar-22@
12:00 UTC

Mar-22 @ 12:00 UTC

Mar-23@
00:00 UTC

Mar-23 @ 00:00 UTC

TAF RJFR 221111Z 2212/2318 04005KT 9999 FEW025 BKN040
Wind
  • 040° at 5 KTS
Cloud Levels
  • Few at 2,500' AGL
  • Broken at 4,000' AGL

Mar-23@
00:00 UTC

Mar-23 @ 00:00 UTC

Mar-23@
06:00 UTC

Mar-23 @ 06:00 UTC

BECMG 2300/2303 30013KT

Becoming

Becoming Conditions expected by Sat, Mar 23, 2019 @ 03:00 UTC

Wind
  • 300° at 13 KTS
Cloud Levels
  • Few at 2,500' AGL
  • Broken at 4,000' AGL

Mar-23@
06:00 UTC

Mar-23 @ 06:00 UTC

Mar-23@
12:00 UTC

Mar-23 @ 12:00 UTC

BECMG 2306/2309 24010KT

Becoming

Becoming Conditions expected by Sat, Mar 23, 2019 @ 09:00 UTC

Wind
  • 240° at 10 KTS
Cloud Levels
  • Few at 2,500' AGL
  • Broken at 4,000' AGL

Mar-23@
12:00 UTC

Mar-23 @ 12:00 UTC

Mar-23@
18:00 UTC

Mar-23 @ 18:00 UTC

BECMG 2312/2315 30017KT

Becoming

Becoming Conditions expected by Sat, Mar 23, 2019 @ 15:00 UTC

Wind
  • 300° at 17 KTS
Cloud Levels
  • Few at 2,500' AGL
  • Broken at 4,000' AGL